Decoded Metar for OIMM (MASHHAD (AFB/CIV in IRAN) (IATA:N/A) | Meteo·Mobile Aviation Weather
aviador You're here:

OIMM Decoded Metar

MASHHAD (AFB/CIV in IRAN
Report Time2019-01-19 16:00:00
UTC Time2019-01-19 16:11:36
Flight Rules vfr VFR
Wind240° at 08 kt
W.Decomp.*RWY 31: 2.3 kt HW 7.7 kt LCW
W.Rank240° ranks 34
Current wind is above 240° avg. (5.2)
Visibility9999 m
Phenomena:N/A
Clouds:Few 035 Hf
Broken 100 Hf
Expected CloudBase > 3,600 ft AGL from Temp-Dew spread
Ceiling10,000 ft
Temp02°C (ISA -7)
Dew Point-7°C (52% RH)
AAT-3.7°C
QNH1015 hPa
Density Alt2,408 ft
Elevation3,215 ft
Report Wrong Elevation
Raw Report
METAR OIMM 191600Z 24008KT 9999 FEW035 BKN100 02/M07 Q1015 A2998=

Extra information for OIMM:More info

Metar Taf Metar & Taf Last 4 Metars F.Rules Stats Wind Profile Meteogram Temp Stats Airport Information Weather charts Add Link Nearby VenuesMetar ALERT Operation Metar Decoded Social comments